sensor_id;sensor_type;location;lat;lon;timestamp;P1;P2;P0
78063;PMS5003;67429;51.596;-3.264;2023-06-24T00:01:49;9;9;
78063;PMS5003;67429;51.596;-3.264;2023-06-24T00:04:14;10;10;
78063;PMS5003;67429;51.596;-3.264;2023-06-24T00:06:40;10;10;
78063;PMS5003;67429;51.596;-3.264;2023-06-24T00:09:06;11;11;
78063;PMS5003;67429;51.596;-3.264;2023-06-24T00:11:31;11;10;
78063;PMS5003;67429;51.596;-3.264;2023-06-24T00:13:57;8;8;
78063;PMS5003;67429;51.596;-3.264;2023-06-24T00:16:22;8;8;
78063;PMS5003;67429;51.596;-3.264;2023-06-24T00:18:47;11;11;
78063;PMS5003;67429;51.596;-3.264;2023-06-24T00:21:13;11;10;
78063;PMS5003;67429;51.596;-3.264;2023-06-24T00:23:38;7;7;
78063;PMS5003;67429;51.596;-3.264;2023-06-24T00:26:04;11;10;
78063;PMS5003;67429;51.596;-3.264;2023-06-24T00:28:29;8;7;
78063;PMS5003;67429;51.596;-3.264;2023-06-24T00:30:55;11;10;
78063;PMS5003;67429;51.596;-3.264;2023-06-24T00:33:20;9;9;
78063;PMS5003;67429;51.596;-3.264;2023-06-24T00:35:45;12;11;
78063;PMS5003;67429;51.596;-3.264;2023-06-24T00:38:11;8;8;
78063;PMS5003;67429;51.596;-3.264;2023-06-24T00:40:36;10;9;
78063;PMS5003;67429;51.596;-3.264;2023-06-24T00:43:01;9;8;
78063;PMS5003;67429;51.596;-3.264;2023-06-24T00:45:27;11;11;
78063;PMS5003;67429;51.596;-3.264;2023-06-24T00:47:52;9;8;
78063;PMS5003;67429;51.596;-3.264;2023-06-24T00:50:18;9;9;
78063;PMS5003;67429;51.596;-3.264;2023-06-24T00:52:43;11;11;
78063;PMS5003;67429;51.596;-3.264;2023-06-24T00:55:09;12;12;
78063;PMS5003;67429;51.596;-3.264;2023-06-24T00:57:34;12;12;
78063;PMS5003;67429;51.596;-3.264;2023-06-24T00:59:59;9;9;
78063;PMS5003;67429;51.596;-3.264;2023-06-24T01:02:25;8;8;
78063;PMS5003;67429;51.596;-3.264;2023-06-24T01:04:51;11;10;
78063;PMS5003;67429;51.596;-3.264;2023-06-24T01:07:16;10;10;
78063;PMS5003;67429;51.596;-3.264;2023-06-24T01:09:41;10;10;
78063;PMS5003;67429;51.596;-3.264;2023-06-24T01:12:07;12;11;
78063;PMS5003;67429;51.596;-3.264;2023-06-24T01:14:32;12;12;
78063;PMS5003;67429;51.596;-3.264;2023-06-24T01:16:59;12;12;
78063;PMS5003;67429;51.596;-3.264;2023-06-24T01:21:50;13;12;
78063;PMS5003;67429;51.596;-3.264;2023-06-24T01:24:17;12;11;
78063;PMS5003;67429;51.596;-3.264;2023-06-24T01:29:09;12;12;
78063;PMS5003;67429;51.596;-3.264;2023-06-24T01:31:32;10;9;
78063;PMS5003;67429;51.596;-3.264;2023-06-24T01:33:57;12;11;
78063;PMS5003;67429;51.596;-3.264;2023-06-24T01:36:22;13;13;
78063;PMS5003;67429;51.596;-3.264;2023-06-24T01:38:48;13;12;
78063;PMS5003;67429;51.596;-3.264;2023-06-24T01:41:13;12;11;
78063;PMS5003;67429;51.596;-3.264;2023-06-24T01:43:38;13;11;
78063;PMS5003;67429;51.596;-3.264;2023-06-24T01:46:03;14;13;
78063;PMS5003;67429;51.596;-3.264;2023-06-24T01:48:28;14;12;
78063;PMS5003;67429;51.596;-3.264;2023-06-24T01:50:57;12;11;
78063;PMS5003;67429;51.596;-3.264;2023-06-24T01:53:19;11;11;
78063;PMS5003;67429;51.596;-3.264;2023-06-24T01:55:45;12;12;
78063;PMS5003;67429;51.596;-3.264;2023-06-24T01:58:10;13;12;
78063;PMS5003;67429;51.596;-3.264;2023-06-24T02:00:35;13;12;
78063;PMS5003;67429;51.596;-3.264;2023-06-24T02:03:01;16;16;
78063;PMS5003;67429;51.596;-3.264;2023-06-24T02:05:27;11;11;
78063;PMS5003;67429;51.596;-3.264;2023-06-24T02:07:52;13;13;
78063;PMS5003;67429;51.596;-3.264;2023-06-24T02:10:18;13;12;
78063;PMS5003;67429;51.596;-3.264;2023-06-24T02:12:44;12;12;
78063;PMS5003;67429;51.596;-3.264;2023-06-24T02:15:09;12;12;
78063;PMS5003;67429;51.596;-3.264;2023-06-24T02:17:34;11;11;
78063;PMS5003;67429;51.596;-3.264;2023-06-24T02:20:00;15;14;
78063;PMS5003;67429;51.596;-3.264;2023-06-24T02:22:24;16;15;
78063;PMS5003;67429;51.596;-3.264;2023-06-24T02:24:49;12;11;
78063;PMS5003;67429;51.596;-3.264;2023-06-24T02:27:15;12;11;
78063;PMS5003;67429;51.596;-3.264;2023-06-24T02:29:40;14;12;
78063;PMS5003;67429;51.596;-3.264;2023-06-24T02:32:06;12;12;
78063;PMS5003;67429;51.596;-3.264;2023-06-24T02:34:31;15;13;
78063;PMS5003;67429;51.596;-3.264;2023-06-24T02:36:57;14;14;
78063;PMS5003;67429;51.596;-3.264;2023-06-24T02:39:22;11;11;
78063;PMS5003;67429;51.596;-3.264;2023-06-24T02:41:48;14;14;
78063;PMS5003;67429;51.596;-3.264;2023-06-24T02:44:13;13;13;
78063;PMS5003;67429;51.596;-3.264;2023-06-24T02:46:38;15;14;
78063;PMS5003;67429;51.596;-3.264;2023-06-24T02:49:03;15;14;
78063;PMS5003;67429;51.596;-3.264;2023-06-24T02:51:29;13;12;
78063;PMS5003;67429;51.596;-3.264;2023-06-24T02:53:54;15;13;
78063;PMS5003;67429;51.596;-3.264;2023-06-24T02:56:20;14;13;
78063;PMS5003;67429;51.596;-3.264;2023-06-24T02:58:45;12;11;
78063;PMS5003;67429;51.596;-3.264;2023-06-24T03:01:11;15;14;
78063;PMS5003;67429;51.596;-3.264;2023-06-24T03:03:36;15;15;
78063;PMS5003;67429;51.596;-3.264;2023-06-24T03:06:02;15;15;
78063;PMS5003;67429;51.596;-3.264;2023-06-24T03:08:27;10;10;
78063;PMS5003;67429;51.596;-3.264;2023-06-24T03:10:54;15;14;
78063;PMS5003;67429;51.596;-3.264;2023-06-24T03:13:18;13;13;
78063;PMS5003;67429;51.596;-3.264;2023-06-24T03:15:44;11;11;
78063;PMS5003;67429;51.596;-3.264;2023-06-24T03:18:09;12;12;
78063;PMS5003;67429;51.596;-3.264;2023-06-24T03:20:35;13;13;
78063;PMS5003;67429;51.596;-3.264;2023-06-24T03:23:01;15;15;
78063;PMS5003;67429;51.596;-3.264;2023-06-24T03:25:26;13;13;
78063;PMS5003;67429;51.596;-3.264;2023-06-24T03:27:51;14;14;
78063;PMS5003;67429;51.596;-3.264;2023-06-24T03:30:17;12;11;
78063;PMS5003;67429;51.596;-3.264;2023-06-24T03:32:43;15;14;
78063;PMS5003;67429;51.596;-3.264;2023-06-24T03:35:08;12;12;
78063;PMS5003;67429;51.596;-3.264;2023-06-24T03:37:33;13;13;
78063;PMS5003;67429;51.596;-3.264;2023-06-24T03:39:58;15;14;
78063;PMS5003;67429;51.596;-3.264;2023-06-24T03:42:23;10;10;
78063;PMS5003;67429;51.596;-3.264;2023-06-24T03:44:49;12;12;
78063;PMS5003;67429;51.596;-3.264;2023-06-24T03:47:14;14;14;
78063;PMS5003;67429;51.596;-3.264;2023-06-24T03:49:39;11;11;
78063;PMS5003;67429;51.596;-3.264;2023-06-24T03:52:05;15;14;
78063;PMS5003;67429;51.596;-3.264;2023-06-24T03:54:30;14;13;
78063;PMS5003;67429;51.596;-3.264;2023-06-24T03:56:55;14;13;
78063;PMS5003;67429;51.596;-3.264;2023-06-24T03:59:21;16;13;
78063;PMS5003;67429;51.596;-3.264;2023-06-24T04:01:46;11;11;
78063;PMS5003;67429;51.596;-3.264;2023-06-24T04:04:12;17;17;
78063;PMS5003;67429;51.596;-3.264;2023-06-24T04:06:37;12;11;
78063;PMS5003;67429;51.596;-3.264;2023-06-24T04:09:03;11;11;
78063;PMS5003;67429;51.596;-3.264;2023-06-24T04:11:29;8;8;
78063;PMS5003;67429;51.596;-3.264;2023-06-24T04:13:54;12;12;
78063;PMS5003;67429;51.596;-3.264;2023-06-24T04:16:20;15;14;
78063;PMS5003;67429;51.596;-3.264;2023-06-24T04:18:45;11;11;
78063;PMS5003;67429;51.596;-3.264;2023-06-24T04:21:11;14;13;
78063;PMS5003;67429;51.596;-3.264;2023-06-24T04:23:36;16;13;
78063;PMS5003;67429;51.596;-3.264;2023-06-24T04:26:02;13;13;
78063;PMS5003;67429;51.596;-3.264;2023-06-24T04:28:27;11;11;
78063;PMS5003;67429;51.596;-3.264;2023-06-24T04:30:53;13;11;
78063;PMS5003;67429;51.596;-3.264;2023-06-24T04:33:18;14;13;
78063;PMS5003;67429;51.596;-3.264;2023-06-24T04:35:44;15;14;
78063;PMS5003;67429;51.596;-3.264;2023-06-24T04:38:10;15;13;
78063;PMS5003;67429;51.596;-3.264;2023-06-24T04:40:35;11;11;
78063;PMS5003;67429;51.596;-3.264;2023-06-24T04:43:01;16;14;
78063;PMS5003;67429;51.596;-3.264;2023-06-24T04:45:26;13;13;
78063;PMS5003;67429;51.596;-3.264;2023-06-24T04:47:52;14;12;
78063;PMS5003;67429;51.596;-3.264;2023-06-24T04:50:17;11;11;
78063;PMS5003;67429;51.596;-3.264;2023-06-24T04:52:42;10;9;
78063;PMS5003;67429;51.596;-3.264;2023-06-24T04:55:07;14;14;
78063;PMS5003;67429;51.596;-3.264;2023-06-24T04:57:33;11;10;
78063;PMS5003;67429;51.596;-3.264;2023-06-24T04:59:58;14;13;
78063;PMS5003;67429;51.596;-3.264;2023-06-24T05:02:24;13;13;
78063;PMS5003;67429;51.596;-3.264;2023-06-24T05:04:49;13;12;
78063;PMS5003;67429;51.596;-3.264;2023-06-24T05:07:15;11;11;
78063;PMS5003;67429;51.596;-3.264;2023-06-24T05:09:40;13;13;
78063;PMS5003;67429;51.596;-3.264;2023-06-24T05:12:06;14;13;
78063;PMS5003;67429;51.596;-3.264;2023-06-24T05:14:31;11;11;
78063;PMS5003;67429;51.596;-3.264;2023-06-24T05:16:56;14;13;
78063;PMS5003;67429;51.596;-3.264;2023-06-24T05:19:22;14;13;
78063;PMS5003;67429;51.596;-3.264;2023-06-24T05:21:47;11;11;
78063;PMS5003;67429;51.596;-3.264;2023-06-24T05:24:12;11;11;
78063;PMS5003;67429;51.596;-3.264;2023-06-24T05:26:38;14;13;
78063;PMS5003;67429;51.596;-3.264;2023-06-24T05:29:03;10;10;
78063;PMS5003;67429;51.596;-3.264;2023-06-24T05:31:29;13;13;
78063;PMS5003;67429;51.596;-3.264;2023-06-24T05:33:54;11;11;
78063;PMS5003;67429;51.596;-3.264;2023-06-24T05:36:19;11;11;
78063;PMS5003;67429;51.596;-3.264;2023-06-24T05:38:44;12;12;
78063;PMS5003;67429;51.596;-3.264;2023-06-24T05:41:09;10;10;
78063;PMS5003;67429;51.596;-3.264;2023-06-24T05:43:35;14;14;
78063;PMS5003;67429;51.596;-3.264;2023-06-24T05:46:00;12;12;
78063;PMS5003;67429;51.596;-3.264;2023-06-24T05:48:25;12;11;
78063;PMS5003;67429;51.596;-3.264;2023-06-24T05:50:51;10;10;
78063;PMS5003;67429;51.596;-3.264;2023-06-24T05:53:16;13;13;
78063;PMS5003;67429;51.596;-3.264;2023-06-24T05:55:42;15;14;
78063;PMS5003;67429;51.596;-3.264;2023-06-24T05:58:07;16;16;
78063;PMS5003;67429;51.596;-3.264;2023-06-24T06:00:32;16;16;
78063;PMS5003;67429;51.596;-3.264;2023-06-24T06:02:58;18;17;
78063;PMS5003;67429;51.596;-3.264;2023-06-24T06:05:24;13;13;
78063;PMS5003;67429;51.596;-3.264;2023-06-24T06:07:49;14;13;
78063;PMS5003;67429;51.596;-3.264;2023-06-24T06:10:14;13;13;
78063;PMS5003;67429;51.596;-3.264;2023-06-24T06:12:40;16;16;
78063;PMS5003;67429;51.596;-3.264;2023-06-24T06:15:06;17;17;
78063;PMS5003;67429;51.596;-3.264;2023-06-24T06:17:32;15;14;
78063;PMS5003;67429;51.596;-3.264;2023-06-24T06:19:57;20;18;
78063;PMS5003;67429;51.596;-3.264;2023-06-24T06:22:22;16;16;
78063;PMS5003;67429;51.596;-3.264;2023-06-24T06:24:48;19;19;
78063;PMS5003;67429;51.596;-3.264;2023-06-24T06:27:13;19;19;
78063;PMS5003;67429;51.596;-3.264;2023-06-24T06:29:39;20;20;
78063;PMS5003;67429;51.596;-3.264;2023-06-24T06:32:04;20;20;
78063;PMS5003;67429;51.596;-3.264;2023-06-24T06:34:30;22;21;
78063;PMS5003;67429;51.596;-3.264;2023-06-24T06:36:55;19;19;
78063;PMS5003;67429;51.596;-3.264;2023-06-24T06:39:21;18;17;
78063;PMS5003;67429;51.596;-3.264;2023-06-24T06:41:46;17;17;
78063;PMS5003;67429;51.596;-3.264;2023-06-24T06:44:11;23;22;
78063;PMS5003;67429;51.596;-3.264;2023-06-24T06:46:37;25;24;
78063;PMS5003;67429;51.596;-3.264;2023-06-24T06:49:02;20;20;
78063;PMS5003;67429;51.596;-3.264;2023-06-24T06:51:27;23;23;
78063;PMS5003;67429;51.596;-3.264;2023-06-24T06:53:53;30;27;
78063;PMS5003;67429;51.596;-3.264;2023-06-24T06:56:18;28;28;
78063;PMS5003;67429;51.596;-3.264;2023-06-24T06:58:43;28;26;
78063;PMS5003;67429;51.596;-3.264;2023-06-24T07:01:09;27;26;
78063;PMS5003;67429;51.596;-3.264;2023-06-24T07:03:34;24;23;
78063;PMS5003;67429;51.596;-3.264;2023-06-24T07:06:00;26;25;
78063;PMS5003;67429;51.596;-3.264;2023-06-24T07:08:25;30;29;
78063;PMS5003;67429;51.596;-3.264;2023-06-24T07:10:50;24;23;
78063;PMS5003;67429;51.596;-3.264;2023-06-24T07:13:15;29;28;
78063;PMS5003;67429;51.596;-3.264;2023-06-24T07:15:41;33;31;
78063;PMS5003;67429;51.596;-3.264;2023-06-24T07:18:06;27;27;
78063;PMS5003;67429;51.596;-3.264;2023-06-24T07:20:32;33;32;
78063;PMS5003;67429;51.596;-3.264;2023-06-24T07:22:57;32;31;
78063;PMS5003;67429;51.596;-3.264;2023-06-24T07:25:23;32;31;
78063;PMS5003;67429;51.596;-3.264;2023-06-24T07:27:48;32;31;
78063;PMS5003;67429;51.596;-3.264;2023-06-24T07:30:13;38;36;
78063;PMS5003;67429;51.596;-3.264;2023-06-24T07:32:39;35;35;
78063;PMS5003;67429;51.596;-3.264;2023-06-24T07:35:04;33;32;
78063;PMS5003;67429;51.596;-3.264;2023-06-24T07:37:29;31;30;
78063;PMS5003;67429;51.596;-3.264;2023-06-24T07:39:54;32;31;
78063;PMS5003;67429;51.596;-3.264;2023-06-24T07:42:20;29;29;
78063;PMS5003;67429;51.596;-3.264;2023-06-24T07:44:45;28;28;
78063;PMS5003;67429;51.596;-3.264;2023-06-24T07:47:10;28;27;
78063;PMS5003;67429;51.596;-3.264;2023-06-24T07:49:35;33;32;
78063;PMS5003;67429;51.596;-3.264;2023-06-24T07:52:01;25;25;
78063;PMS5003;67429;51.596;-3.264;2023-06-24T07:54:27;32;31;
78063;PMS5003;67429;51.596;-3.264;2023-06-24T07:56:52;35;33;
78063;PMS5003;67429;51.596;-3.264;2023-06-24T07:59:17;39;35;
78063;PMS5003;67429;51.596;-3.264;2023-06-24T08:01:43;29;27;
78063;PMS5003;67429;51.596;-3.264;2023-06-24T08:04:09;28;27;
78063;PMS5003;67429;51.596;-3.264;2023-06-24T08:06:34;27;26;
78063;PMS5003;67429;51.596;-3.264;2023-06-24T08:09:00;38;37;
78063;PMS5003;67429;51.596;-3.264;2023-06-24T08:11:25;33;32;
78063;PMS5003;67429;51.596;-3.264;2023-06-24T08:13:50;31;30;
78063;PMS5003;67429;51.596;-3.264;2023-06-24T08:16:16;28;27;
78063;PMS5003;67429;51.596;-3.264;2023-06-24T08:18:41;25;23;
78063;PMS5003;67429;51.596;-3.264;2023-06-24T08:21:07;20;20;
78063;PMS5003;67429;51.596;-3.264;2023-06-24T08:23:33;20;19;
78063;PMS5003;67429;51.596;-3.264;2023-06-24T08:25:58;21;20;
78063;PMS5003;67429;51.596;-3.264;2023-06-24T08:28:24;19;18;
78063;PMS5003;67429;51.596;-3.264;2023-06-24T08:30:50;23;23;
78063;PMS5003;67429;51.596;-3.264;2023-06-24T08:33:15;20;19;
78063;PMS5003;67429;51.596;-3.264;2023-06-24T08:35:41;19;17;
78063;PMS5003;67429;51.596;-3.264;2023-06-24T08:38:06;21;19;
78063;PMS5003;67429;51.596;-3.264;2023-06-24T08:40:31;17;16;
78063;PMS5003;67429;51.596;-3.264;2023-06-24T08:42:57;19;18;
78063;PMS5003;67429;51.596;-3.264;2023-06-24T08:45:22;21;19;
78063;PMS5003;67429;51.596;-3.264;2023-06-24T08:47:48;17;17;
78063;PMS5003;67429;51.596;-3.264;2023-06-24T08:50:13;14;13;
78063;PMS5003;67429;51.596;-3.264;2023-06-24T08:52:41;13;13;
78063;PMS5003;67429;51.596;-3.264;2023-06-24T08:55:05;18;17;
78063;PMS5003;67429;51.596;-3.264;2023-06-24T08:57:30;14;14;
78063;PMS5003;67429;51.596;-3.264;2023-06-24T08:59:55;16;16;
78063;PMS5003;67429;51.596;-3.264;2023-06-24T09:02:21;21;20;
78063;PMS5003;67429;51.596;-3.264;2023-06-24T09:04:47;17;17;
78063;PMS5003;67429;51.596;-3.264;2023-06-24T09:07:12;21;20;
78063;PMS5003;67429;51.596;-3.264;2023-06-24T09:09:42;21;21;
78063;PMS5003;67429;51.596;-3.264;2023-06-24T09:12:03;26;23;
78063;PMS5003;67429;51.596;-3.264;2023-06-24T09:14:29;21;19;
78063;PMS5003;67429;51.596;-3.264;2023-06-24T09:16:54;20;19;
78063;PMS5003;67429;51.596;-3.264;2023-06-24T09:19:20;24;24;
78063;PMS5003;67429;51.596;-3.264;2023-06-24T09:21:45;21;21;
78063;PMS5003;67429;51.596;-3.264;2023-06-24T09:24:10;21;21;
78063;PMS5003;67429;51.596;-3.264;2023-06-24T09:26:36;15;15;
78063;PMS5003;67429;51.596;-3.264;2023-06-24T09:29:01;18;18;
78063;PMS5003;67429;51.596;-3.264;2023-06-24T09:31:26;20;19;
78063;PMS5003;67429;51.596;-3.264;2023-06-24T09:33:52;22;21;
78063;PMS5003;67429;51.596;-3.264;2023-06-24T09:36:17;19;18;
78063;PMS5003;67429;51.596;-3.264;2023-06-24T09:38:43;20;20;
78063;PMS5003;67429;51.596;-3.264;2023-06-24T09:41:08;20;18;
78063;PMS5003;67429;51.596;-3.264;2023-06-24T09:43:34;22;21;
78063;PMS5003;67429;51.596;-3.264;2023-06-24T09:45:59;15;15;
78063;PMS5003;67429;51.596;-3.264;2023-06-24T09:48:24;18;16;
78063;PMS5003;67429;51.596;-3.264;2023-06-24T09:50:49;16;14;
78063;PMS5003;67429;51.596;-3.264;2023-06-24T09:53:15;15;15;
78063;PMS5003;67429;51.596;-3.264;2023-06-24T09:55:41;21;19;
78063;PMS5003;67429;51.596;-3.264;2023-06-24T09:58:06;17;16;
78063;PMS5003;67429;51.596;-3.264;2023-06-24T10:00:32;18;17;
78063;PMS5003;67429;51.596;-3.264;2023-06-24T10:02:58;20;20;
78063;PMS5003;67429;51.596;-3.264;2023-06-24T10:05:23;18;18;
78063;PMS5003;67429;51.596;-3.264;2023-06-24T10:07:48;18;18;
78063;PMS5003;67429;51.596;-3.264;2023-06-24T10:10:13;18;17;
78063;PMS5003;67429;51.596;-3.264;2023-06-24T10:12:39;18;17;
78063;PMS5003;67429;51.596;-3.264;2023-06-24T10:15:05;14;13;
78063;PMS5003;67429;51.596;-3.264;2023-06-24T10:17:30;16;16;
78063;PMS5003;67429;51.596;-3.264;2023-06-24T10:19:55;14;14;
78063;PMS5003;67429;51.596;-3.264;2023-06-24T10:22:21;15;15;
78063;PMS5003;67429;51.596;-3.264;2023-06-24T10:24:47;14;13;
78063;PMS5003;67429;51.596;-3.264;2023-06-24T10:27:13;13;13;
78063;PMS5003;67429;51.596;-3.264;2023-06-24T10:29:36;12;11;
78063;PMS5003;67429;51.596;-3.264;2023-06-24T10:32:02;12;12;
78063;PMS5003;67429;51.596;-3.264;2023-06-24T10:34:27;11;11;
78063;PMS5003;67429;51.596;-3.264;2023-06-24T10:36:53;14;13;
78063;PMS5003;67429;51.596;-3.264;2023-06-24T10:41:43;13;12;
78063;PMS5003;67429;51.596;-3.264;2023-06-24T10:46:33;10;10;
78063;PMS5003;67429;51.596;-3.264;2023-06-24T10:48:59;11;11;
78063;PMS5003;67429;51.596;-3.264;2023-06-24T10:51:24;9;9;
78063;PMS5003;67429;51.596;-3.264;2023-06-24T10:53:49;15;14;
78063;PMS5003;67429;51.596;-3.264;2023-06-24T10:56:15;10;10;
78063;PMS5003;67429;51.596;-3.264;2023-06-24T10:58:40;10;9;
78063;PMS5003;67429;51.596;-3.264;2023-06-24T11:01:06;10;10;
78063;PMS5003;67429;51.596;-3.264;2023-06-24T11:03:33;12;11;
78063;PMS5003;67429;51.596;-3.264;2023-06-24T11:05:56;11;11;
78063;PMS5003;67429;51.596;-3.264;2023-06-24T11:08:21;10;10;
78063;PMS5003;67429;51.596;-3.264;2023-06-24T11:10:47;11;10;
78063;PMS5003;67429;51.596;-3.264;2023-06-24T11:13:12;13;13;
78063;PMS5003;67429;51.596;-3.264;2023-06-24T11:15:38;12;12;
78063;PMS5003;67429;51.596;-3.264;2023-06-24T11:18:03;10;10;
78063;PMS5003;67429;51.596;-3.264;2023-06-24T11:20:28;11;11;
78063;PMS5003;67429;51.596;-3.264;2023-06-24T11:22:53;11;11;
78063;PMS5003;67429;51.596;-3.264;2023-06-24T11:25:19;12;12;
78063;PMS5003;67429;51.596;-3.264;2023-06-24T11:27:44;9;9;
78063;PMS5003;67429;51.596;-3.264;2023-06-24T11:30:10;11;11;
78063;PMS5003;67429;51.596;-3.264;2023-06-24T11:32:35;9;8;
78063;PMS5003;67429;51.596;-3.264;2023-06-24T11:35:00;10;10;
78063;PMS5003;67429;51.596;-3.264;2023-06-24T11:37:30;13;13;
78063;PMS5003;67429;51.596;-3.264;2023-06-24T11:42:16;8;8;
78063;PMS5003;67429;51.596;-3.264;2023-06-24T11:44:41;10;10;
78063;PMS5003;67429;51.596;-3.264;2023-06-24T11:47:07;10;9;
78063;PMS5003;67429;51.596;-3.264;2023-06-24T11:49:31;7;7;
78063;PMS5003;67429;51.596;-3.264;2023-06-24T11:51:57;9;9;
78063;PMS5003;67429;51.596;-3.264;2023-06-24T11:54:22;10;9;
78063;PMS5003;67429;51.596;-3.264;2023-06-24T11:56:49;9;9;
78063;PMS5003;67429;51.596;-3.264;2023-06-24T11:59:16;9;9;
78063;PMS5003;67429;51.596;-3.264;2023-06-24T12:01:38;9;9;
78063;PMS5003;67429;51.596;-3.264;2023-06-24T12:06:29;7;7;
78063;PMS5003;67429;51.596;-3.264;2023-06-24T12:08:54;11;10;
78063;PMS5003;67429;51.596;-3.264;2023-06-24T12:11:20;8;8;
78063;PMS5003;67429;51.596;-3.264;2023-06-24T12:13:45;9;9;
78063;PMS5003;67429;51.596;-3.264;2023-06-24T12:16:10;7;7;
78063;PMS5003;67429;51.596;-3.264;2023-06-24T12:18:35;10;10;
78063;PMS5003;67429;51.596;-3.264;2023-06-24T12:21:00;10;10;
78063;PMS5003;67429;51.596;-3.264;2023-06-24T12:23:26;7;7;
78063;PMS5003;67429;51.596;-3.264;2023-06-24T12:25:51;7;7;
78063;PMS5003;67429;51.596;-3.264;2023-06-24T12:28:17;10;10;
78063;PMS5003;67429;51.596;-3.264;2023-06-24T12:30:42;10;10;
78063;PMS5003;67429;51.596;-3.264;2023-06-24T12:33:07;10;8;
78063;PMS5003;67429;51.596;-3.264;2023-06-24T12:35:33;7;7;
78063;PMS5003;67429;51.596;-3.264;2023-06-24T12:37:58;11;10;
78063;PMS5003;67429;51.596;-3.264;2023-06-24T12:40:23;8;8;
78063;PMS5003;67429;51.596;-3.264;2023-06-24T12:42:49;9;9;
78063;PMS5003;67429;51.596;-3.264;2023-06-24T12:45:15;8;8;
78063;PMS5003;67429;51.596;-3.264;2023-06-24T12:47:40;9;9;
78063;PMS5003;67429;51.596;-3.264;2023-06-24T12:50:06;7;7;
78063;PMS5003;67429;51.596;-3.264;2023-06-24T12:52:31;8;8;
78063;PMS5003;67429;51.596;-3.264;2023-06-24T12:54:56;8;7;
78063;PMS5003;67429;51.596;-3.264;2023-06-24T12:57:21;8;8;
78063;PMS5003;67429;51.596;-3.264;2023-06-24T12:59:47;9;9;
78063;PMS5003;67429;51.596;-3.264;2023-06-24T13:02:12;9;8;
78063;PMS5003;67429;51.596;-3.264;2023-06-24T13:04:37;7;7;
78063;PMS5003;67429;51.596;-3.264;2023-06-24T13:07:03;11;10;
78063;PMS5003;67429;51.596;-3.264;2023-06-24T13:09:28;6;6;
78063;PMS5003;67429;51.596;-3.264;2023-06-24T13:11:53;9;9;
78063;PMS5003;67429;51.596;-3.264;2023-06-24T13:14:18;8;8;
78063;PMS5003;67429;51.596;-3.264;2023-06-24T13:16:44;8;7;
78063;PMS5003;67429;51.596;-3.264;2023-06-24T13:19:09;8;8;
78063;PMS5003;67429;51.596;-3.264;2023-06-24T13:21:34;8;8;
78063;PMS5003;67429;51.596;-3.264;2023-06-24T13:24:00;8;8;
78063;PMS5003;67429;51.596;-3.264;2023-06-24T13:26:25;7;7;
78063;PMS5003;67429;51.596;-3.264;2023-06-24T13:28:51;6;6;
78063;PMS5003;67429;51.596;-3.264;2023-06-24T13:31:16;6;6;
78063;PMS5003;67429;51.596;-3.264;2023-06-24T13:33:41;6;6;
78063;PMS5003;67429;51.596;-3.264;2023-06-24T13:36:07;7;6;
78063;PMS5003;67429;51.596;-3.264;2023-06-24T13:38:32;5;5;
78063;PMS5003;67429;51.596;-3.264;2023-06-24T13:40:57;5;5;
78063;PMS5003;67429;51.596;-3.264;2023-06-24T13:43:22;8;8;
78063;PMS5003;67429;51.596;-3.264;2023-06-24T13:45:48;7;7;
78063;PMS5003;67429;51.596;-3.264;2023-06-24T13:48:13;6;6;
78063;PMS5003;67429;51.596;-3.264;2023-06-24T13:50:38;6;5;
78063;PMS5003;67429;51.596;-3.264;2023-06-24T13:53:04;7;7;
78063;PMS5003;67429;51.596;-3.264;2023-06-24T13:55:29;6;6;
78063;PMS5003;67429;51.596;-3.264;2023-06-24T13:57:54;7;7;
78063;PMS5003;67429;51.596;-3.264;2023-06-24T14:00:20;6;6;
78063;PMS5003;67429;51.596;-3.264;2023-06-24T14:02:45;7;7;
78063;PMS5003;67429;51.596;-3.264;2023-06-24T14:05:10;7;7;
78063;PMS5003;67429;51.596;-3.264;2023-06-24T14:07:36;5;5;
78063;PMS5003;67429;51.596;-3.264;2023-06-24T14:10:01;6;6;
78063;PMS5003;67429;51.596;-3.264;2023-06-24T14:12:26;6;6;
78063;PMS5003;67429;51.596;-3.264;2023-06-24T14:14:52;6;6;
78063;PMS5003;67429;51.596;-3.264;2023-06-24T14:17:17;6;6;
78063;PMS5003;67429;51.596;-3.264;2023-06-24T14:19:42;5;4;
78063;PMS5003;67429;51.596;-3.264;2023-06-24T14:22:08;8;6;
78063;PMS5003;67429;51.596;-3.264;2023-06-24T14:24:34;5;5;
78063;PMS5003;67429;51.596;-3.264;2023-06-24T14:26:59;5;5;
78063;PMS5003;67429;51.596;-3.264;2023-06-24T14:29:24;6;6;
78063;PMS5003;67429;51.596;-3.264;2023-06-24T14:31:49;5;5;
78063;PMS5003;67429;51.596;-3.264;2023-06-24T14:34:14;5;5;
78063;PMS5003;67429;51.596;-3.264;2023-06-24T14:36:40;6;6;
78063;PMS5003;67429;51.596;-3.264;2023-06-24T14:39:05;5;5;
78063;PMS5003;67429;51.596;-3.264;2023-06-24T14:41:30;7;7;
78063;PMS5003;67429;51.596;-3.264;2023-06-24T14:43:56;7;6;
78063;PMS5003;67429;51.596;-3.264;2023-06-24T14:46:21;5;5;
78063;PMS5003;67429;51.596;-3.264;2023-06-24T14:48:47;7;6;
78063;PMS5003;67429;51.596;-3.264;2023-06-24T14:51:11;6;6;
78063;PMS5003;67429;51.596;-3.264;2023-06-24T14:53:37;6;5;
78063;PMS5003;67429;51.596;-3.264;2023-06-24T14:56:02;5;5;
78063;PMS5003;67429;51.596;-3.264;2023-06-24T14:58:28;5;5;
78063;PMS5003;67429;51.596;-3.264;2023-06-24T15:00:53;4;4;
78063;PMS5003;67429;51.596;-3.264;2023-06-24T15:03:18;6;5;
78063;PMS5003;67429;51.596;-3.264;2023-06-24T15:05:44;4;4;
78063;PMS5003;67429;51.596;-3.264;2023-06-24T15:08:09;5;5;
78063;PMS5003;67429;51.596;-3.264;2023-06-24T15:10:34;4;4;
78063;PMS5003;67429;51.596;-3.264;2023-06-24T15:12:59;4;4;
78063;PMS5003;67429;51.596;-3.264;2023-06-24T15:15:25;6;5;
78063;PMS5003;67429;51.596;-3.264;2023-06-24T15:17:50;10;10;
78063;PMS5003;67429;51.596;-3.264;2023-06-24T15:20:15;5;4;
78063;PMS5003;67429;51.596;-3.264;2023-06-24T15:22:41;4;4;
78063;PMS5003;67429;51.596;-3.264;2023-06-24T15:25:07;4;4;
78063;PMS5003;67429;51.596;-3.264;2023-06-24T15:27:31;4;4;
78063;PMS5003;67429;51.596;-3.264;2023-06-24T15:29:56;5;4;
78063;PMS5003;67429;51.596;-3.264;2023-06-24T15:32:22;3;3;
78063;PMS5003;67429;51.596;-3.264;2023-06-24T15:34:47;4;4;
78063;PMS5003;67429;51.596;-3.264;2023-06-24T15:37:12;3;3;
78063;PMS5003;67429;51.596;-3.264;2023-06-24T15:39:38;5;5;
78063;PMS5003;67429;51.596;-3.264;2023-06-24T15:42:03;4;4;
78063;PMS5003;67429;51.596;-3.264;2023-06-24T15:44:28;4;4;
78063;PMS5003;67429;51.596;-3.264;2023-06-24T15:46:54;5;5;
78063;PMS5003;67429;51.596;-3.264;2023-06-24T15:49:19;4;4;
78063;PMS5003;67429;51.596;-3.264;2023-06-24T15:51:44;4;4;
78063;PMS5003;67429;51.596;-3.264;2023-06-24T15:54:10;4;4;
78063;PMS5003;67429;51.596;-3.264;2023-06-24T15:56:35;4;4;
78063;PMS5003;67429;51.596;-3.264;2023-06-24T15:59:00;6;6;
78063;PMS5003;67429;51.596;-3.264;2023-06-24T16:01:26;6;6;
78063;PMS5003;67429;51.596;-3.264;2023-06-24T16:03:51;4;4;
78063;PMS5003;67429;51.596;-3.264;2023-06-24T16:06:17;4;4;
78063;PMS5003;67429;51.596;-3.264;2023-06-24T16:08:42;3;3;
78063;PMS5003;67429;51.596;-3.264;2023-06-24T16:11:07;5;5;
78063;PMS5003;67429;51.596;-3.264;2023-06-24T16:13:33;5;5;